createdAt,value
2023-11-01T00:00:07.060Z,1.85
2023-11-01T00:02:41.290Z,2.53
2023-11-01T00:05:09.805Z,1.63
2023-11-01T00:07:37.825Z,1.95
2023-11-01T00:10:06.321Z,2.00
2023-11-01T00:12:34.301Z,1.60
2023-11-01T00:15:04.216Z,1.58
2023-11-01T00:17:32.146Z,1.50
2023-11-01T00:20:00.620Z,1.30
2023-11-01T00:22:28.539Z,2.00
2023-11-01T00:24:56.353Z,1.27
2023-11-01T00:27:24.222Z,1.30
2023-11-01T00:29:52.145Z,1.67
2023-11-01T00:32:21.472Z,1.48
2023-11-01T00:34:49.808Z,1.50
2023-11-01T00:37:17.811Z,1.38
2023-11-01T00:39:45.808Z,1.65
2023-11-01T00:42:13.650Z,1.45
2023-11-01T00:44:41.609Z,1.50
2023-11-01T00:47:09.780Z,1.38
2023-11-01T00:49:39.021Z,1.63
2023-11-01T00:52:07.610Z,1.33
2023-11-01T00:54:38.013Z,1.30
2023-11-01T00:57:06.031Z,1.45
2023-11-01T00:59:33.879Z,1.77
2023-11-01T01:02:01.765Z,1.30
2023-11-01T01:04:29.742Z,1.88
2023-11-01T01:06:59.027Z,1.02
2023-11-01T01:09:27.196Z,1.15
2023-11-01T01:11:55.024Z,1.33
2023-11-01T01:14:22.948Z,1.50
2023-11-01T01:16:51.264Z,1.45
2023-11-01T01:19:19.348Z,1.85
2023-11-01T01:21:47.263Z,1.55
2023-11-01T01:24:16.601Z,2.13
2023-11-01T01:26:44.506Z,1.30
2023-11-01T01:29:12.492Z,1.20
2023-11-01T01:31:40.706Z,1.40
2023-11-01T01:34:08.710Z,1.50
2023-11-01T01:36:36.580Z,1.30
2023-11-01T01:39:04.572Z,1.55
2023-11-01T01:41:33.907Z,1.38
2023-11-01T01:44:02.243Z,1.63
2023-11-01T01:46:31.329Z,1.30
2023-11-01T01:49:00.134Z,0.85
2023-11-01T01:51:28.585Z,1.42
2023-11-01T01:53:56.909Z,1.13
2023-11-01T01:56:25.967Z,1.30
2023-11-01T01:58:55.509Z,1.40
2023-11-01T02:01:34.831Z,1.60
2023-11-01T02:04:07.673Z,1.25
2023-11-01T02:06:35.584Z,2.42
2023-11-01T02:09:06.488Z,1.30
2023-11-01T02:11:37.585Z,1.50
2023-11-01T02:14:07.188Z,1.63
2023-11-01T02:16:35.169Z,1.55
2023-11-01T02:19:03.250Z,1.67
2023-11-01T02:21:31.084Z,1.20
2023-11-01T02:24:00.876Z,1.23
2023-11-01T02:26:28.932Z,1.40
2023-11-01T02:28:56.865Z,1.25
2023-11-01T02:31:24.782Z,1.30
2023-11-01T02:33:52.768Z,1.20
2023-11-01T02:36:20.665Z,1.45
2023-11-01T02:38:48.722Z,1.42
2023-11-01T02:41:20.555Z,1.67
2023-11-01T02:43:49.681Z,1.25
2023-11-01T02:46:18.368Z,1.92
2023-11-01T02:48:46.267Z,1.30
2023-11-01T02:51:14.313Z,2.38
2023-11-01T02:53:42.211Z,1.77
2023-11-01T02:56:10.255Z,1.60
2023-11-01T02:58:39.810Z,1.40
2023-11-01T03:01:08.332Z,1.73
2023-11-01T03:03:36.262Z,1.67
2023-11-01T03:06:04.403Z,2.13
2023-11-01T03:08:32.375Z,1.50
2023-11-01T03:11:00.346Z,1.63
2023-11-01T03:13:28.380Z,2.00
2023-11-01T03:15:57.747Z,1.92
2023-11-01T03:18:25.788Z,1.60
2023-11-01T03:20:54.078Z,1.88
2023-11-01T03:23:21.989Z,1.70
2023-11-01T03:25:49.910Z,1.70
2023-11-01T03:28:17.725Z,2.55
2023-11-01T03:30:45.767Z,1.58
2023-11-01T03:33:15.085Z,1.88
2023-11-01T03:35:43.057Z,1.60
2023-11-01T03:38:10.913Z,1.45
2023-11-01T03:40:38.846Z,1.30
2023-11-01T03:43:06.760Z,1.75
2023-11-01T03:45:34.605Z,1.33
2023-11-01T03:48:02.592Z,1.55
2023-11-01T03:50:33.110Z,1.23
2023-11-01T03:53:01.715Z,1.50
2023-11-01T03:55:29.531Z,1.55
2023-11-01T03:57:57.452Z,1.52
2023-11-01T04:00:25.381Z,1.40
2023-11-01T04:02:53.283Z,1.65
2023-11-01T04:05:21.339Z,1.40
2023-11-01T04:07:50.786Z,1.23
2023-11-01T04:10:18.639Z,1.52
2023-11-01T04:12:46.627Z,1.20
2023-11-01T04:15:14.693Z,1.95
2023-11-01T04:17:42.699Z,1.25
2023-11-01T04:20:11.077Z,0.95
2023-11-01T04:22:39.213Z,1.55
2023-11-01T04:25:11.480Z,1.30
2023-11-01T04:27:41.209Z,1.20
2023-11-01T04:30:09.776Z,2.35
2023-11-01T04:32:37.697Z,1.10
2023-11-01T04:35:10.495Z,1.42
2023-11-01T04:37:38.954Z,1.23
2023-11-01T04:40:09.187Z,1.55
2023-11-01T04:42:40.235Z,1.13
2023-11-01T04:45:08.694Z,1.30
2023-11-01T04:47:37.320Z,1.30
2023-11-01T04:50:09.826Z,1.20
2023-11-01T04:52:38.009Z,1.40
2023-11-01T04:55:06.644Z,1.33
2023-11-01T04:57:36.351Z,1.08
2023-11-01T05:00:09.874Z,1.17
2023-11-01T05:02:38.206Z,1.27
2023-11-01T05:05:07.467Z,1.77
2023-11-01T05:07:35.655Z,1.25
2023-11-01T05:10:04.022Z,1.08
2023-11-01T05:12:32.004Z,1.70
2023-11-01T05:15:02.142Z,1.23
2023-11-01T05:17:30.246Z,1.75
2023-11-01T05:19:58.872Z,5.60
2023-11-01T05:22:26.812Z,2.60
2023-11-01T05:24:54.639Z,2.97
2023-11-01T05:27:22.624Z,1.75
2023-11-01T05:29:50.579Z,2.08
2023-11-01T05:32:20.030Z,2.22
2023-11-01T05:34:49.423Z,1.45
2023-11-01T05:37:17.489Z,2.25
2023-11-01T05:39:45.931Z,1.58
2023-11-01T05:42:13.853Z,1.85
2023-11-01T05:44:43.175Z,1.50
2023-11-01T05:47:11.076Z,1.65
2023-11-01T05:49:40.350Z,3.35
2023-11-01T05:52:08.643Z,6.53
2023-11-01T05:54:36.875Z,3.80
2023-11-01T05:57:04.941Z,3.72
2023-11-01T05:59:32.818Z,1.75
2023-11-01T06:02:00.759Z,1.73
2023-11-01T06:04:28.607Z,2.65
2023-11-01T06:06:57.936Z,1.90
2023-11-01T06:09:25.985Z,3.45
2023-11-01T06:11:53.917Z,3.10
2023-11-01T06:14:23.384Z,3.05
2023-11-01T06:16:51.411Z,2.60
2023-11-01T06:19:19.265Z,3.03
2023-11-01T06:21:47.188Z,4.10
2023-11-01T06:24:16.441Z,2.83
2023-11-01T06:26:45.511Z,3.15
2023-11-01T06:29:14.225Z,2.50
2023-11-01T06:31:42.029Z,5.22
2023-11-01T06:34:09.988Z,3.25
2023-11-01T06:36:38.437Z,3.30
2023-11-01T06:39:06.525Z,3.92
2023-11-01T06:41:36.113Z,2.88
2023-11-01T06:44:04.457Z,2.00
2023-11-01T06:46:32.427Z,2.35
2023-11-01T06:49:00.353Z,2.92
2023-11-01T06:51:28.561Z,2.72
2023-11-01T06:53:56.514Z,2.90
2023-11-01T06:56:24.691Z,3.33
2023-11-01T06:58:53.966Z,2.85
2023-11-01T07:01:22.110Z,3.20
2023-11-01T07:03:50.300Z,3.00
2023-11-01T07:06:18.605Z,3.50
2023-11-01T07:08:46.719Z,3.40
2023-11-01T07:11:14.861Z,4.10
2023-11-01T07:13:45.173Z,3.70
2023-11-01T07:16:14.727Z,2.83
2023-11-01T07:18:42.731Z,3.03
2023-11-01T07:21:11.307Z,3.63
2023-11-01T07:23:39.290Z,2.40
2023-11-01T07:26:07.334Z,2.65
2023-11-01T07:28:35.292Z,2.10
2023-11-01T07:31:03.771Z,2.30
2023-11-01T07:33:33.315Z,2.03
2023-11-01T07:36:01.252Z,3.70
2023-11-01T07:38:30.410Z,2.90
2023-11-01T07:40:58.249Z,2.15
2023-11-01T07:43:26.626Z,2.38
2023-11-01T07:45:55.261Z,2.50
2023-11-01T07:48:23.323Z,2.00
2023-11-01T07:50:52.696Z,2.45
2023-11-01T07:53:21.204Z,2.17
2023-11-01T07:55:51.748Z,1.85
2023-11-01T07:58:20.963Z,8.43
2023-11-01T08:00:49.460Z,2.88
2023-11-01T08:03:17.453Z,1.85
2023-11-01T08:05:45.486Z,2.20
2023-11-01T08:08:14.905Z,1.92
2023-11-01T08:10:42.849Z,2.08
2023-11-01T08:13:11.372Z,2.25
2023-11-01T08:15:39.567Z,2.22
2023-11-01T08:18:07.623Z,1.80
2023-11-01T08:20:35.488Z,2.08
2023-11-01T08:23:03.522Z,2.55
2023-11-01T08:25:32.794Z,2.05
2023-11-01T08:28:00.759Z,1.85
2023-11-01T08:30:28.613Z,2.40
2023-11-01T08:32:56.861Z,2.28
2023-11-01T08:35:25.126Z,2.10
2023-11-01T08:37:53.082Z,1.88
2023-11-01T08:40:21.115Z,3.38
2023-11-01T08:42:50.550Z,1.73
2023-11-01T08:45:18.984Z,2.05
2023-11-01T08:47:47.277Z,1.13
2023-11-01T08:50:15.366Z,1.20
2023-11-01T08:52:44.642Z,1.52
2023-11-01T08:55:14.423Z,1.02
2023-11-01T08:57:43.492Z,1.23
2023-11-01T09:00:13.907Z,1.20
2023-11-01T09:02:41.924Z,1.50
2023-11-01T09:05:10.269Z,1.65
2023-11-01T09:07:39.790Z,1.15
2023-11-01T09:10:10.269Z,1.40
2023-11-01T09:12:38.799Z,1.30
2023-11-01T09:15:07.148Z,1.60
2023-11-01T09:17:36.699Z,1.33
2023-11-01T09:20:04.771Z,1.38
2023-11-01T09:22:32.736Z,1.80
2023-11-01T09:25:00.593Z,1.60
2023-11-01T09:27:28.674Z,1.63
2023-11-01T09:29:56.595Z,1.50
2023-11-01T09:32:24.647Z,1.80
2023-11-01T09:34:56.685Z,1.45
2023-11-01T09:37:24.531Z,1.60
2023-11-01T09:39:52.624Z,1.20
2023-11-01T09:42:21.551Z,1.35
2023-11-01T09:44:51.224Z,1.58
2023-11-01T09:47:19.486Z,1.60
2023-11-01T09:49:48.352Z,1.75
2023-11-01T09:52:18.197Z,1.50
2023-11-01T09:54:46.062Z,1.60
2023-11-01T09:57:14.447Z,1.48
2023-11-01T09:59:42.785Z,1.23
2023-11-01T10:02:11.551Z,1.63
2023-11-01T10:04:40.359Z,1.50
2023-11-01T10:07:08.468Z,1.85
2023-11-01T10:09:39.686Z,1.48
2023-11-01T10:12:09.147Z,1.40
2023-11-01T10:14:38.243Z,1.25
2023-11-01T10:17:06.723Z,1.17
2023-11-01T10:19:34.758Z,1.75
2023-11-01T10:22:02.891Z,1.30
2023-11-01T10:24:31.292Z,2.33
2023-11-01T10:27:00.766Z,1.67
2023-11-01T10:29:29.558Z,1.80
2023-11-01T10:31:58.050Z,1.13
2023-11-01T10:34:29.414Z,1.40
2023-11-01T10:36:58.506Z,1.10
2023-11-01T10:39:26.750Z,1.42
2023-11-01T10:41:55.748Z,0.98
2023-11-01T10:44:27.456Z,1.30
2023-11-01T10:46:56.082Z,0.70
2023-11-01T10:49:24.090Z,1.00
2023-11-01T10:51:53.962Z,1.10
2023-11-01T10:54:22.093Z,0.75
2023-11-01T10:56:50.680Z,0.95
2023-11-01T10:59:25.006Z,0.50
2023-11-01T11:01:58.291Z,0.93
2023-11-01T11:04:29.902Z,0.80
2023-11-01T11:06:59.853Z,0.70
2023-11-01T11:09:29.121Z,0.60
2023-11-01T11:12:20.041Z,0.88
2023-11-01T11:14:48.355Z,0.50
2023-11-01T11:17:18.492Z,0.82
2023-11-01T11:20:05.405Z,0.57
2023-11-01T11:22:48.271Z,0.80
2023-11-01T11:25:31.016Z,0.88
2023-11-01T11:28:01.834Z,0.70
2023-11-01T11:31:01.652Z,0.98
2023-11-01T11:33:32.348Z,3.30
2023-11-01T11:36:14.091Z,0.85
2023-11-01T11:38:50.764Z,0.85
2023-11-01T11:41:19.321Z,0.82
2023-11-01T11:44:08.131Z,0.30
2023-11-01T11:49:06.970Z,0.85
2023-11-01T11:51:36.797Z,0.60
2023-11-01T11:54:11.000Z,0.50
2023-11-01T11:56:39.277Z,0.40
2023-11-01T11:59:07.173Z,0.70
2023-11-01T12:01:35.103Z,0.85
2023-11-01T12:04:03.213Z,0.38
2023-11-01T12:06:42.318Z,0.38
2023-11-01T12:09:20.497Z,0.90
2023-11-01T12:11:49.779Z,0.50
2023-11-01T12:14:19.413Z,0.60
2023-11-01T12:16:47.428Z,0.75
2023-11-01T12:19:18.103Z,0.98
2023-11-01T12:21:48.660Z,0.50
2023-11-01T12:24:19.839Z,0.60
2023-11-01T12:27:00.781Z,0.40
2023-11-01T12:29:32.332Z,1.10
2023-11-01T12:32:03.593Z,0.80
2023-11-01T12:34:32.431Z,0.60
2023-11-01T12:37:02.927Z,0.35
2023-11-01T12:39:30.886Z,0.30
2023-11-01T12:41:58.827Z,0.63
2023-11-01T12:44:26.854Z,0.35
2023-11-01T12:47:01.018Z,0.40
2023-11-01T12:49:28.961Z,0.40
2023-11-01T12:51:56.877Z,0.43
2023-11-01T12:54:26.949Z,0.40
2023-11-01T12:56:55.020Z,0.60
2023-11-01T12:59:24.111Z,1.00
2023-11-01T13:01:51.995Z,0.63
2023-11-01T13:04:20.053Z,0.52
2023-11-01T13:06:47.969Z,0.70
2023-11-01T13:09:16.182Z,0.70
2023-11-01T13:11:45.550Z,0.70
2023-11-01T13:14:13.504Z,0.50
2023-11-01T13:16:41.645Z,0.50
2023-11-01T13:19:09.794Z,0.68
2023-11-01T13:21:37.771Z,0.47
2023-11-01T13:24:06.107Z,0.40
2023-11-01T13:26:34.470Z,0.30
2023-11-01T13:29:03.940Z,0.40
2023-11-01T13:31:32.228Z,0.60
2023-11-01T13:34:00.202Z,0.32
2023-11-01T13:36:28.202Z,0.45
2023-11-01T13:38:57.996Z,0.47
2023-11-01T13:41:26.162Z,0.43
2023-11-01T13:43:54.018Z,0.50
2023-11-01T13:46:24.087Z,0.63
2023-11-01T13:48:52.237Z,0.70
2023-11-01T13:51:20.143Z,0.50
2023-11-01T13:53:48.442Z,0.32
2023-11-01T13:56:16.391Z,0.20
2023-11-01T13:58:48.251Z,0.30
2023-11-01T14:01:16.094Z,0.40
2023-11-01T14:03:51.904Z,0.60
2023-11-01T14:06:20.521Z,0.40
2023-11-01T14:08:48.696Z,0.50
2023-11-01T14:11:17.074Z,0.50
2023-11-01T14:13:45.281Z,0.55
2023-11-01T14:16:13.682Z,0.50
2023-11-01T14:18:41.637Z,0.50
2023-11-01T14:21:11.716Z,0.60
2023-11-01T14:23:39.806Z,0.50
2023-11-01T14:26:08.757Z,0.60
2023-11-01T14:28:36.725Z,0.50
2023-11-01T14:31:04.940Z,0.50
2023-11-01T14:33:34.939Z,0.47
2023-11-01T14:36:02.969Z,1.17
2023-11-01T14:38:32.324Z,0.40
2023-11-01T14:41:02.141Z,0.57
2023-11-01T14:43:30.070Z,0.40
2023-11-01T14:45:58.084Z,0.82
2023-11-01T14:48:26.181Z,0.80
2023-11-01T14:50:56.437Z,0.40
2023-11-01T14:53:24.471Z,0.60
2023-11-01T14:55:53.716Z,0.75
2023-11-01T14:58:21.677Z,0.50
2023-11-01T15:00:50.335Z,0.65
2023-11-01T15:03:18.321Z,0.60
2023-11-01T15:05:46.315Z,0.40
2023-11-01T15:08:14.231Z,0.80
2023-11-01T15:10:42.148Z,1.10
2023-11-01T15:13:13.433Z,0.60
2023-11-01T15:15:41.580Z,0.80
2023-11-01T15:18:09.518Z,0.75
2023-11-01T15:20:37.754Z,1.05
2023-11-01T15:23:06.539Z,0.82
2023-11-01T15:25:36.284Z,0.70
2023-11-01T15:28:05.031Z,0.98
2023-11-01T15:30:34.736Z,1.10
2023-11-01T15:33:02.746Z,0.90
2023-11-01T15:35:30.691Z,1.52
2023-11-01T15:37:58.744Z,0.82
2023-11-01T15:40:27.046Z,1.05
2023-11-01T15:42:54.980Z,0.90
2023-11-01T15:45:22.900Z,1.02
2023-11-01T15:47:52.341Z,1.13
2023-11-01T15:50:20.696Z,1.00
2023-11-01T15:52:48.663Z,1.40
2023-11-01T15:55:16.686Z,6.60
2023-11-01T15:57:44.627Z,2.10
2023-11-01T16:00:13.761Z,4.25
2023-11-01T16:02:41.807Z,3.15
2023-11-01T16:05:11.202Z,1.65
2023-11-01T16:07:39.116Z,1.95
2023-11-01T16:10:07.828Z,1.63
2023-11-01T16:12:35.796Z,2.67
2023-11-01T16:15:04.457Z,2.58
2023-11-01T16:17:32.625Z,1.77
2023-11-01T16:20:03.012Z,1.98
2023-11-01T16:22:32.746Z,2.22
2023-11-01T16:25:00.652Z,2.40
2023-11-01T16:27:28.594Z,2.40
2023-11-01T16:29:58.675Z,2.83
2023-11-01T16:32:26.973Z,2.88
2023-11-01T16:34:54.868Z,2.33
2023-11-01T16:37:22.674Z,3.33
2023-11-01T16:39:52.540Z,2.40
2023-11-01T16:42:20.423Z,2.42
2023-11-01T16:44:48.396Z,3.30
2023-11-01T16:47:16.571Z,2.35
2023-11-01T16:49:45.235Z,1.90
2023-11-01T16:52:13.171Z,2.03
2023-11-01T16:54:41.166Z,2.50
2023-11-01T16:57:10.585Z,2.20
2023-11-01T16:59:38.713Z,2.78
2023-11-01T17:02:06.574Z,2.40
2023-11-01T17:04:35.874Z,2.78
2023-11-01T17:07:04.047Z,2.58
2023-11-01T17:09:31.978Z,2.50
2023-11-01T17:12:01.849Z,2.63
2023-11-01T17:14:31.189Z,4.55
2023-11-01T17:16:59.658Z,2.42
2023-11-01T17:19:27.560Z,2.47
2023-11-01T17:21:55.522Z,2.60
2023-11-01T17:24:25.670Z,2.70
2023-11-01T17:26:58.539Z,2.33
2023-11-01T17:29:31.104Z,2.13
2023-11-01T17:32:00.579Z,1.92
2023-11-01T17:34:29.943Z,1.80
2023-11-01T17:37:00.105Z,1.90
2023-11-01T17:39:29.679Z,1.50
2023-11-01T17:41:59.735Z,1.92
2023-11-01T17:44:29.772Z,2.45
2023-11-01T17:46:58.796Z,1.88
2023-11-01T17:49:48.738Z,2.10
2023-11-01T17:52:19.351Z,3.08
2023-11-01T17:54:48.966Z,2.38
2023-11-01T17:57:17.388Z,2.90
2023-11-01T17:59:45.324Z,2.75
2023-11-01T18:02:36.045Z,3.08
2023-11-01T18:05:06.010Z,3.05
2023-11-01T18:07:34.097Z,3.60
2023-11-01T18:10:04.389Z,3.42
2023-11-01T18:12:32.645Z,3.28
2023-11-01T18:15:00.522Z,3.03
2023-11-01T18:17:28.937Z,2.70
2023-11-01T18:19:58.279Z,2.95
2023-11-01T18:22:40.260Z,3.25
2023-11-01T18:25:21.574Z,2.85
2023-11-01T18:27:49.466Z,3.35
2023-11-01T18:30:18.984Z,4.28
2023-11-01T18:32:47.328Z,3.50
2023-11-01T18:35:17.849Z,3.65
2023-11-01T18:37:47.199Z,3.90
2023-11-01T18:40:21.105Z,3.45
2023-11-01T18:42:55.919Z,4.35
2023-11-01T18:45:23.917Z,4.18
2023-11-01T18:47:52.966Z,4.05
2023-11-01T18:50:21.117Z,4.63
2023-11-01T18:52:50.453Z,4.70
2023-11-01T18:55:24.243Z,3.17
2023-11-01T18:57:52.186Z,4.47
2023-11-01T19:00:25.707Z,5.03
2023-11-01T19:03:18.085Z,4.55
2023-11-01T19:05:47.025Z,7.53
2023-11-01T19:08:18.014Z,5.13
2023-11-01T19:10:46.083Z,3.83
2023-11-01T19:13:14.035Z,3.22
2023-11-01T19:16:03.074Z,4.28
2023-11-01T19:20:58.796Z,3.63
2023-11-01T19:23:28.470Z,3.85
2023-11-01T19:25:56.507Z,3.67
2023-11-01T19:28:26.769Z,3.60
2023-11-01T19:30:54.760Z,3.80
2023-11-01T19:33:29.447Z,3.90
2023-11-01T19:36:08.156Z,3.88
2023-11-01T19:38:44.377Z,3.42
2023-11-01T19:41:12.448Z,4.68
2023-11-01T19:43:40.271Z,4.07
2023-11-01T19:46:08.198Z,4.10
2023-11-01T19:48:38.874Z,5.10
2023-11-01T19:51:08.193Z,4.72
2023-11-01T19:53:36.995Z,4.18
2023-11-01T19:56:06.469Z,3.92
2023-11-01T19:58:34.390Z,4.07
2023-11-01T20:01:02.337Z,3.88
2023-11-01T20:03:30.464Z,4.28
2023-11-01T20:05:58.537Z,3.67
2023-11-01T20:08:26.743Z,3.63
2023-11-01T20:10:54.912Z,3.88
2023-11-01T20:13:24.160Z,4.57
2023-11-01T20:15:52.243Z,3.97
2023-11-01T20:18:20.708Z,4.55
2023-11-01T20:20:48.778Z,3.85
2023-11-01T20:23:17.093Z,4.57
2023-11-01T20:25:45.087Z,4.60
2023-11-01T20:28:16.839Z,4.32
2023-11-01T20:30:46.356Z,4.68
2023-11-01T20:33:14.509Z,4.97
2023-11-01T20:35:42.660Z,4.75
2023-11-01T20:38:10.621Z,5.22
2023-11-01T20:40:38.763Z,4.57
2023-11-01T20:43:06.744Z,4.57
2023-11-01T20:45:38.655Z,4.18
2023-11-01T20:48:09.490Z,4.38
2023-11-01T20:50:37.549Z,4.25
2023-11-01T20:53:06.470Z,4.18
2023-11-01T20:55:35.373Z,3.85
2023-11-01T20:58:04.829Z,4.07
2023-11-01T21:00:33.199Z,5.07
2023-11-01T21:03:01.227Z,3.38
2023-11-01T21:05:30.625Z,3.90
2023-11-01T21:08:00.404Z,3.40
2023-11-01T21:10:30.202Z,3.65
2023-11-01T21:12:58.109Z,3.72
2023-11-01T21:15:26.024Z,3.78
2023-11-01T21:17:54.126Z,5.18
2023-11-01T21:20:22.233Z,5.43
2023-11-01T21:22:51.635Z,5.00
2023-11-01T21:25:20.767Z,4.68
2023-11-01T21:27:48.701Z,4.13
2023-11-01T21:30:16.876Z,4.78
2023-11-01T21:32:45.002Z,3.42
2023-11-01T21:35:16.514Z,3.35
2023-11-01T21:37:47.129Z,3.70
2023-11-01T21:40:16.437Z,3.72
2023-11-01T21:42:44.527Z,3.35
2023-11-01T21:45:12.812Z,4.45
2023-11-01T21:47:41.146Z,4.47
2023-11-01T21:50:24.067Z,5.45
2023-11-01T21:52:52.168Z,5.55
2023-11-01T21:55:34.952Z,4.93
2023-11-01T21:58:10.600Z,6.32
2023-11-01T22:00:47.313Z,7.05
2023-11-01T22:03:15.990Z,4.90
2023-11-01T22:05:44.340Z,4.30
2023-11-01T22:08:18.046Z,3.95
2023-11-01T22:10:47.303Z,5.30
2023-11-01T22:13:17.093Z,23.65
2023-11-01T22:15:45.768Z,4.85
2023-11-01T22:18:16.925Z,3.92
2023-11-01T22:20:47.467Z,3.53
2023-11-01T22:23:15.957Z,3.20
2023-11-01T22:25:43.802Z,3.38
2023-11-01T22:28:11.775Z,3.58
2023-11-01T22:30:41.989Z,3.15
2023-11-01T22:33:10.684Z,3.78
2023-11-01T22:35:40.471Z,3.78
2023-11-01T22:38:08.639Z,4.00
2023-11-01T22:40:36.644Z,3.65
2023-11-01T22:43:04.531Z,3.83
2023-11-01T22:45:32.524Z,3.85
2023-11-01T22:48:02.038Z,4.20
2023-11-01T22:50:30.138Z,4.03
2023-11-01T22:52:58.014Z,4.13
2023-11-01T22:55:40.505Z,4.78
2023-11-01T22:58:10.434Z,4.97
2023-11-01T23:00:38.397Z,4.13
2023-11-01T23:03:08.922Z,3.65
2023-11-01T23:05:38.428Z,3.42
2023-11-01T23:08:06.716Z,3.50
2023-11-01T23:10:36.154Z,3.72
2023-11-01T23:13:04.303Z,4.05
2023-11-01T23:15:32.241Z,3.42
2023-11-01T23:18:00.318Z,3.60
2023-11-01T23:20:29.799Z,5.05
2023-11-01T23:22:57.733Z,3.15
2023-11-01T23:25:29.638Z,3.58
2023-11-01T23:27:58.750Z,3.15
2023-11-01T23:30:37.563Z,3.28
2023-11-01T23:33:05.794Z,3.55
2023-11-01T23:35:37.539Z,3.75
2023-11-01T23:38:05.585Z,4.03
2023-11-01T23:40:39.034Z,3.63
2023-11-01T23:43:09.592Z,3.70
2023-11-01T23:45:58.230Z,3.13
2023-11-01T23:48:26.919Z,3.50
2023-11-01T23:50:56.237Z,3.90
2023-11-01T23:53:25.419Z,3.28
2023-11-01T23:55:54.425Z,3.80
2023-11-01T23:58:28.865Z,3.38
